Time;durP1;ratioP1;P1;durP2;ratioP2;P2;SDS_P1;SDS_P2;PMS_P1;PMS_P2;Temp;Humidity;BMP_temperature;BMP_pressure;BME280_temperature;BME280_humidity;BME280_pressure;Samples;Min_cycle;Max_cycle;Signal;HPM_P1;HPM_P2
2022/11/23 00:01:26;;;;;;;;;;;-0.10;99.90;;;;;;5154499;27;20031;-73
2022/11/23 00:03:57;;;;;;;0.40;0.40;;;-0.10;99.90;;;;;;5153868;27;19930;-73
2022/11/23 00:06:24;;;;;;;0.30;0.30;;;-0.10;99.90;;;;;;5154451;27;20067;-73
2022/11/23 00:08:50;;;;;;;0.40;0.40;;;-0.10;99.90;;;;;;5153784;27;20373;-73
2022/11/23 00:11:16;;;;;;;1.77;1.67;;;-0.10;99.90;;;;;;5153799;27;20497;-73
2022/11/23 00:13:42;;;;;;;1.95;1.85;;;2.30;99.90;;;;;;5152679;27;20111;-73
2022/11/23 00:16:25;;;;;;;0.40;0.40;;;0.00;99.90;;;;;;5153653;27;20042;-73
2022/11/23 00:18:56;;;;;;;0.40;0.40;;;-0.10;99.90;;;;;;5152205;27;20126;-74
2022/11/23 00:21:22;;;;;;;0.30;0.30;;;-0.10;99.90;;;;;;5153994;27;20377;-75
2022/11/23 00:23:49;;;;;;;0.75;0.75;;;0.00;99.90;;;;;;5153703;27;20046;-73
2022/11/23 00:26:16;;;;;;;0.50;0.50;;;-0.10;99.90;;;;;;5153763;27;20023;-73
2022/11/23 00:28:42;;;;;;;0.40;0.40;;;-0.10;99.90;;;;;;5153521;27;20039;-73
2022/11/23 00:31:10;;;;;;;0.40;0.40;;;-0.20;99.90;;;;;;5152376;27;20091;-73
2022/11/23 00:33:36;;;;;;;0.75;0.75;;;-0.10;99.90;;;;;;5151975;27;20050;-73
2022/11/23 00:36:07;;;;;;;0.43;0.43;;;-0.10;99.90;;;;;;5153797;27;20054;-73
2022/11/23 00:38:33;;;;;;;0.85;0.85;;;-0.10;99.90;;;;;;5152209;27;20030;-74
2022/11/23 00:41:00;;;;;;;0.40;0.40;;;-0.20;99.90;;;;;;5151995;27;20043;-74
2022/11/23 00:43:26;;;;;;;1.60;1.50;;;-0.20;99.90;;;;;;5153177;27;20046;-73
2022/11/23 00:46:11;;;;;;;0.40;0.40;;;-0.10;99.90;;;;;;5153443;27;20041;-73
2022/11/23 00:48:37;;;;;;;0.30;0.30;;;-0.10;99.90;;;;;;5153216;27;20502;-73
2022/11/23 00:51:05;;;;;;;1.37;1.30;;;-0.10;99.90;;;;;;5153499;27;20115;-73
2022/11/23 00:53:30;;;;;;;0.40;0.40;;;-0.20;99.90;;;;;;5153330;27;20092;-73
2022/11/23 00:55:56;;;;;;;1.13;1.13;;;-0.10;99.90;;;;;;5153383;27;20470;-73
2022/11/23 00:58:23;;;;;;;0.40;0.40;;;-0.50;99.90;;;;;;5151987;27;20026;-73
2022/11/23 01:00:48;;;;;;;1.65;1.27;;;-0.10;99.90;;;;;;5152789;27;20168;-74
2022/11/23 01:03:15;;;;;;;0.50;0.50;;;-0.10;99.90;;;;;;5151240;27;20506;-73
2022/11/23 01:05:41;;;;;;;0.40;0.40;;;-0.20;99.90;;;;;;5153203;27;20042;-74
2022/11/23 01:08:07;;;;;;;0.40;0.40;;;-0.10;99.90;;;;;;5153138;27;20385;-73
2022/11/23 01:10:32;;;;;;;0.57;0.57;;;-0.10;99.90;;;;;;5152819;27;20438;-73
2022/11/23 01:12:58;;;;;;;1.80;1.70;;;-0.20;99.90;;;;;;5153145;27;20102;-73
2022/11/23 01:15:24;;;;;;;0.43;0.43;;;-0.20;99.90;;;;;;5152432;27;20049;-73
2022/11/23 01:17:50;;;;;;;7.03;2.80;;;-0.10;99.90;;;;;;5151400;27;20035;-74
2022/11/23 01:20:15;;;;;;;0.50;0.50;;;-0.10;99.90;;;;;;5153047;27;20832;-74
2022/11/23 01:22:41;;;;;;;0.70;0.70;;;-0.20;99.90;;;;;;5153219;27;20042;-74
2022/11/23 01:25:07;;;;;;;0.40;0.40;;;-0.10;99.90;;;;;;5152988;27;20018;-74
2022/11/23 01:27:33;;;;;;;0.40;0.40;;;0.60;99.90;;;;;;5152954;27;20053;-74
2022/11/23 01:29:59;;;;;;;1.23;1.23;;;-0.20;99.90;;;;;;5151594;27;20502;-73
2022/11/23 01:32:24;;;;;;;3.10;2.90;;;-0.20;99.90;;;;;;5152551;27;20642;-74
2022/11/23 01:34:50;;;;;;;0.33;0.33;;;-0.20;99.90;;;;;;5151378;27;20037;-72
2022/11/23 01:37:15;;;;;;;1.17;1.17;;;-0.20;99.90;;;;;;5153027;27;20087;-72
2022/11/23 01:39:41;;;;;;;0.87;0.87;;;-0.10;99.90;;;;;;5152766;27;20066;-73
2022/11/23 01:42:07;;;;;;;0.33;0.33;;;-0.10;99.90;;;;;;5152784;27;20082;-73
2022/11/23 01:44:35;;;;;;;1.25;1.17;;;-0.10;99.90;;;;;;5152738;27;20023;-73
2022/11/23 01:47:02;;;;;;;0.40;0.40;;;-0.10;99.90;;;;;;5152428;27;20425;-74
2022/11/23 01:49:34;;;;;;;0.60;0.60;;;-0.20;99.90;;;;;;5152606;27;20443;-73
2022/11/23 01:52:06;;;;;;;0.30;0.30;;;-0.10;99.90;;;;;;5153096;27;20039;-73
2022/11/23 01:54:42;;;;;;;0.68;0.68;;;-0.10;99.90;;;;;;5152680;27;20033;-74
2022/11/23 01:57:24;;;;;;;1.70;1.60;;;-0.10;99.90;;;;;;5152661;27;20386;-74
2022/11/23 01:59:50;;;;;;;0.52;0.52;;;-0.10;99.90;;;;;;5152529;27;20030;-73
2022/11/23 02:02:16;;;;;;;0.75;0.75;;;-0.10;99.90;;;;;;5152140;27;20430;-74
2022/11/23 02:04:45;;;;;;;0.40;0.40;;;-0.10;99.90;;;;;;5151150;27;20126;-73
2022/11/23 02:07:12;;;;;;;1.45;1.38;;;-0.10;99.90;;;;;;5153076;27;20050;-73
2022/11/23 02:09:38;;;;;;;0.40;0.40;;;-0.10;99.90;;;;;;5150951;27;20023;-73
2022/11/23 02:12:10;;;;;;;0.40;0.40;;;-0.20;99.90;;;;;;5152344;27;20114;-73
2022/11/23 02:14:36;;;;;;;0.50;0.50;;;-0.10;99.90;;;;;;5152360;27;20046;-73
2022/11/23 02:17:04;;;;;;;0.40;0.40;;;-0.10;99.90;;;;;;5152181;27;20042;-72
2022/11/23 02:19:30;;;;;;;0.50;0.50;;;-0.10;99.90;;;;;;5152416;27;20088;-73
2022/11/23 02:21:56;;;;;;;1.33;1.23;;;-0.10;99.90;;;;;;5151161;27;20042;-74
2022/11/23 02:24:29;;;;;;;2.00;1.85;;;0.00;99.90;;;;;;5150988;27;20030;-74
2022/11/23 02:26:55;;;;;;;0.50;0.50;;;-0.20;99.90;;;;;;5153925;27;20129;-72
2022/11/23 02:29:25;;;;;;;0.30;0.30;;;-0.20;99.90;;;;;;5154602;27;20079;-74
2022/11/23 02:31:52;;;;;;;0.40;0.40;;;-0.20;99.90;;;;;;5154330;27;20093;-74
2022/11/23 02:34:18;;;;;;;0.52;0.52;;;-0.20;99.90;;;;;;5155927;27;20389;-74
2022/11/23 02:36:47;;;;;;;0.38;0.38;;;-0.10;99.90;;;;;;5156659;27;20042;-74
2022/11/23 02:39:18;;;;;;;0.40;0.40;;;-0.10;99.90;;;;;;5154463;27;20485;-74
2022/11/23 02:41:49;;;;;;;2.72;2.15;;;-0.10;99.90;;;;;;5154370;27;20039;-74
2022/11/23 02:44:25;;;;;;;1.23;1.20;;;-0.20;99.90;;;;;;5155796;27;20111;-74
2022/11/23 02:46:52;;;;;;;0.85;0.85;;;0.00;99.90;;;;;;5155668;27;20568;-74
2022/11/23 02:49:18;;;;;;;0.60;0.60;;;-0.10;99.90;;;;;;5155543;27;20091;-73
2022/11/23 02:51:43;;;;;;;0.40;0.40;;;-0.10;99.90;;;;;;5154444;27;20481;-73
2022/11/23 02:54:09;;;;;;;0.90;0.90;;;2.30;99.90;;;;;;5155422;27;20113;-72
2022/11/23 02:56:35;;;;;;;0.82;0.82;;;-0.20;99.90;;;;;;5155515;27;20035;-73
2022/11/23 02:59:00;;;;;;;0.80;0.80;;;-0.10;99.90;;;;;;5153940;27;20035;-73
2022/11/23 03:01:27;;;;;;;0.60;0.60;;;-0.10;99.90;;;;;;5155119;27;20034;-73
2022/11/23 03:03:53;;;;;;;0.35;0.35;;;-0.10;99.90;;;;;;5155583;27;20027;-74
2022/11/23 03:06:18;;;;;;;0.60;0.60;;;-0.10;99.90;;;;;;5155039;27;20130;-74
2022/11/23 03:08:44;;;;;;;0.63;0.63;;;;;;;;;;5155372;27;20103;-74
2022/11/23 03:11:10;;;;;;;0.38;0.38;;;0.00;99.90;;;;;;5154989;27;20050;-74
2022/11/23 03:13:35;;;;;;;0.47;0.47;;;-0.10;99.90;;;;;;5155232;27;20130;-73
2022/11/23 03:16:01;;;;;;;0.80;0.80;;;0.00;99.90;;;;;;5154369;27;20087;-73
2022/11/23 03:18:27;;;;;;;0.53;0.53;;;-0.10;99.90;;;;;;5155052;27;20050;-73
2022/11/23 03:20:52;;;;;;;0.77;0.77;;;-0.10;99.90;;;;;;5153618;27;20481;-73
2022/11/23 03:23:18;;;;;;;1.37;1.37;;;0.00;99.90;;;;;;5153471;27;20377;-73
2022/11/23 03:25:43;;;;;;;0.40;0.40;;;-0.10;99.90;;;;;;5154921;27;20026;-73
2022/11/23 03:28:09;;;;;;;0.40;0.40;;;-0.10;99.90;;;;;;5154988;27;20027;-73
2022/11/23 03:30:35;;;;;;;0.93;0.93;;;0.00;99.90;;;;;;5154402;27;20111;-73
2022/11/23 03:33:00;;;;;;;4.80;2.53;;;0.00;99.90;;;;;;5153203;27;20079;-73
2022/11/23 03:35:26;;;;;;;0.77;0.77;;;0.00;99.90;;;;;;5153227;27;20042;-73
2022/11/23 03:37:51;;;;;;;0.40;0.40;;;-0.10;99.90;;;;;;5154207;27;20493;-74
2022/11/23 03:40:17;;;;;;;0.43;0.43;;;-0.10;99.90;;;;;;5153292;27;20530;-74
2022/11/23 03:42:43;;;;;;;0.40;0.40;;;-0.20;99.90;;;;;;5154818;27;20042;-73
2022/11/23 03:45:09;;;;;;;0.40;0.40;;;-0.20;99.90;;;;;;5154199;27;20039;-74
2022/11/23 03:47:35;;;;;;;0.40;0.40;;;-0.10;99.90;;;;;;5154377;27;20027;-72
2022/11/23 03:50:00;;;;;;;0.40;0.40;;;0.20;99.90;;;;;;5154326;27;20038;-74
2022/11/23 03:52:26;;;;;;;1.17;1.17;;;-0.10;99.90;;;;;;5152889;27;20034;-73
2022/11/23 03:54:51;;;;;;;0.40;0.40;;;-0.10;99.90;;;;;;5152943;27;20035;-74
2022/11/23 03:57:17;;;;;;;0.40;0.40;;;-0.10;99.90;;;;;;5154475;27;20114;-73
2022/11/23 03:59:42;;;;;;;0.87;0.87;;;-0.20;99.90;;;;;;5154292;27;20043;-73
2022/11/23 04:02:08;;;;;;;0.40;0.40;;;-0.10;99.90;;;;;;5154051;27;20037;-74
2022/11/23 04:04:35;;;;;;;0.70;0.70;;;0.00;99.90;;;;;;5154047;27;20102;-73
2022/11/23 04:07:00;;;;;;;0.30;0.30;;;-0.10;99.90;;;;;;5154532;27;20064;-73
2022/11/23 04:09:26;;;;;;;1.37;1.27;;;-0.10;99.90;;;;;;5153960;27;20034;-73
2022/11/23 04:11:51;;;;;;;0.80;0.80;;;-0.10;99.90;;;;;;5171179;27;20331;-73
2022/11/23 04:14:17;;;;;;;0.60;0.60;;;-0.10;99.90;;;;;;5174806;27;20042;-73
2022/11/23 04:16:43;;;;;;;0.40;0.40;;;-0.10;99.90;;;;;;5174309;27;20198;-73
2022/11/23 04:19:08;;;;;;;0.50;0.50;;;-0.20;99.90;;;;;;5174706;27;20038;-73
2022/11/23 04:21:34;;;;;;;0.70;0.70;;;-0.20;99.90;;;;;;5174927;27;20066;-73
2022/11/23 04:23:59;;;;;;;0.40;0.40;;;-0.50;99.90;;;;;;5155915;27;20393;-73
2022/11/23 04:26:25;;;;;;;0.40;0.40;;;-0.20;99.90;;;;;;5174395;27;20034;-74
2022/11/23 04:28:51;;;;;;;0.40;0.40;;;-0.30;99.90;;;;;;5174436;27;20082;-74
2022/11/23 04:31:16;;;;;;;0.40;0.40;;;-0.30;99.90;;;;;;5174249;27;20049;-73
2022/11/23 04:33:42;;;;;;;0.60;0.60;;;-0.20;99.90;;;;;;5174612;27;20065;-73
2022/11/23 04:36:07;;;;;;;0.40;0.40;;;-0.20;99.90;;;;;;5155660;27;20042;-73
2022/11/23 04:38:33;;;;;;;0.73;0.73;;;-0.10;99.90;;;;;;5174424;27;20038;-73
2022/11/23 04:40:59;;;;;;;1.50;1.43;;;-0.20;99.90;;;;;;5174211;27;20098;-73
2022/11/23 04:43:24;;;;;;;0.40;0.40;;;-0.20;99.90;;;;;;5174220;27;20046;-73
2022/11/23 04:45:50;;;;;;;0.50;0.50;;;-0.20;99.90;;;;;;5173685;27;20098;-73
2022/11/23 04:48:16;;;;;;;0.50;0.50;;;-0.20;99.90;;;;;;5173921;27;20469;-73
2022/11/23 04:50:41;;;;;;;0.40;0.40;;;0.00;99.90;;;;;;5173759;27;20046;-73
2022/11/23 04:53:07;;;;;;;0.50;0.50;;;-0.30;99.90;;;;;;5174068;27;20403;-73
2022/11/23 04:55:33;;;;;;;0.98;0.95;;;-0.20;99.90;;;;;;5174031;27;20465;-73
2022/11/23 04:57:59;;;;;;;0.53;0.53;;;-0.20;99.90;;;;;;5155207;27;20033;-74
2022/11/23 05:00:25;;;;;;;1.97;1.87;;;-0.20;99.90;;;;;;5173613;27;20026;-75
2022/11/23 05:02:51;;;;;;;0.52;0.52;;;-0.10;99.90;;;;;;5138034;27;20045;-73
2022/11/23 05:05:16;;;;;;;0.40;0.40;;;-0.20;99.90;;;;;;5154935;27;20465;-73
2022/11/23 05:07:42;;;;;;;0.60;0.60;;;-0.20;99.90;;;;;;5173999;27;20492;-73
2022/11/23 05:10:08;;;;;;;0.40;0.40;;;-0.20;99.90;;;;;;5155012;27;20050;-73
2022/11/23 05:12:35;;;;;;;0.60;0.60;;;-0.20;99.90;;;;;;5173901;27;20065;-72
2022/11/23 05:15:01;;;;;;;2.15;2.05;;;-0.30;99.90;;;;;;5173444;27;20030;-72
2022/11/23 05:17:27;;;;;;;0.40;0.40;;;-0.20;99.90;;;;;;5155059;27;20135;-73
2022/11/23 05:19:52;;;;;;;0.67;0.67;;;-0.20;99.90;;;;;;5155283;27;20385;-74
2022/11/23 05:22:18;;;;;;;1.00;1.00;;;-0.30;99.90;;;;;;5155291;27;20034;-75
2022/11/23 05:24:44;;;;;;;0.40;0.40;;;-0.20;99.90;;;;;;5173981;27;20041;-74
2022/11/23 05:27:09;;;;;;;0.70;0.70;;;-0.20;99.90;;;;;;5173779;27;20027;-73
2022/11/23 05:29:36;;;;;;;0.82;0.82;;;-0.20;99.90;;;;;;5173436;27;20375;-73
2022/11/23 05:32:02;;;;;;;0.40;0.40;;;-0.20;99.90;;;;;;5173965;27;20090;-75
2022/11/23 05:34:28;;;;;;;0.57;0.57;;;;;;;;;;5173808;27;20038;-74
2022/11/23 05:36:53;;;;;;;0.47;0.47;;;-0.20;99.90;;;;;;5155104;27;20122;-73
2022/11/23 05:39:19;;;;;;;3.43;3.13;;;-0.20;99.90;;;;;;5174025;27;20114;-75
2022/11/23 05:41:44;;;;;;;0.53;0.53;;;-0.20;99.90;;;;;;5154920;27;20042;-74
2022/11/23 05:44:10;;;;;;;0.57;0.57;;;-0.20;99.90;;;;;;5173347;27;20129;-74
2022/11/23 05:46:36;;;;;;;0.40;0.40;;;;;;;;;;5173566;27;20083;-73
2022/11/23 05:49:01;;;;;;;0.40;0.40;;;-0.20;99.90;;;;;;5173709;27;20033;-75
2022/11/23 05:51:27;;;;;;;0.40;0.40;;;-0.20;99.90;;;;;;5173525;27;20125;-73
2022/11/23 05:53:53;;;;;;;0.40;0.40;;;1.40;99.90;;;;;;5154501;27;20034;-73
2022/11/23 05:56:19;;;;;;;0.40;0.40;;;;;;;;;;5154691;27;20038;-75
2022/11/23 05:58:45;;;;;;;1.77;1.67;;;-0.10;99.90;;;;;;5173417;27;20082;-74
2022/11/23 06:01:10;;;;;;;0.47;0.47;;;-0.10;99.90;;;;;;5175827;27;20030;-74
2022/11/23 06:03:37;;;;;;;0.50;0.50;;;4.00;99.90;;;;;;5177666;27;20088;-74
2022/11/23 06:06:02;;;;;;;0.50;0.50;;;-0.10;99.90;;;;;;5177418;27;20035;-73
2022/11/23 06:08:28;;;;;;;0.60;0.60;;;-0.20;99.90;;;;;;5158471;27;20033;-74
2022/11/23 06:10:53;;;;;;;0.40;0.40;;;-0.10;99.90;;;;;;5158290;27;20071;-73
2022/11/23 06:13:19;;;;;;;0.40;0.40;;;-0.10;99.90;;;;;;5176749;27;20033;-73
2022/11/23 06:15:45;;;;;;;0.40;0.40;;;;;;;;;;5177258;27;20034;-75
2022/11/23 06:18:10;;;;;;;0.40;0.40;;;-0.10;99.90;;;;;;5158905;27;20030;-74
2022/11/23 06:20:36;;;;;;;0.47;0.47;;;-0.10;99.90;;;;;;5158375;27;20498;-75
2022/11/23 06:23:02;;;;;;;0.57;0.57;;;-0.20;99.90;;;;;;5158356;27;20091;-74
2022/11/23 06:25:27;;;;;;;0.53;0.53;;;-0.30;99.90;;;;;;5176981;27;20037;-75
2022/11/23 06:27:54;;;;;;;0.40;0.40;;;-0.20;99.90;;;;;;5176884;27;20092;-73
2022/11/23 06:30:20;;;;;;;0.30;0.30;;;-0.10;99.90;;;;;;5176999;27;20460;-74
2022/11/23 06:32:46;;;;;;;0.50;0.50;;;-0.20;99.90;;;;;;5158529;27;20125;-74
2022/11/23 06:35:11;;;;;;;0.40;0.40;;;-0.10;99.90;;;;;;5158137;27;20038;-73
2022/11/23 06:37:37;;;;;;;0.70;0.70;;;-0.10;99.90;;;;;;5158077;27;20438;-77
2022/11/23 06:40:02;;;;;;;0.60;0.60;;;-0.30;99.90;;;;;;5176610;27;20037;-74
2022/11/23 06:42:28;;;;;;;1.70;1.60;;;0.10;99.90;;;;;;5176579;27;20030;-74
2022/11/23 06:44:53;;;;;;;0.47;0.47;;;0.30;99.90;;;;;;5157961;27;20027;-74
2022/11/23 06:47:19;;;;;;;0.40;0.40;;;-1.70;99.90;;;;;;5176307;27;20381;-73
2022/11/23 06:49:45;;;;;;;0.50;0.50;;;-0.30;99.90;;;;;;5176343;27;20034;-73
2022/11/23 06:52:10;;;;;;;0.50;0.50;;;-0.20;99.90;;;;;;5176841;27;20038;-73
2022/11/23 06:54:36;;;;;;;0.40;0.40;;;-0.20;99.90;;;;;;5176380;27;20144;-73
2022/11/23 06:57:02;;;;;;;0.40;0.40;;;-0.30;99.90;;;;;;5157424;27;20079;-73
2022/11/23 06:59:27;;;;;;;0.40;0.40;;;-0.20;99.90;;;;;;5175754;27;20022;-74
2022/11/23 07:01:53;;;;;;;0.40;0.40;;;-0.10;99.90;;;;;;5175728;27;20517;-74
2022/11/23 07:04:18;;;;;;;0.60;0.60;;;-0.30;99.90;;;;;;5176330;27;20045;-74
2022/11/23 07:06:44;;;;;;;0.50;0.50;;;-0.20;99.90;;;;;;5158147;27;20038;-74
2022/11/23 07:09:10;;;;;;;0.40;0.40;;;-0.20;99.90;;;;;;5176677;27;20385;-74
2022/11/23 07:11:35;;;;;;;0.87;0.87;;;-0.20;99.90;;;;;;5157503;27;20058;-74
2022/11/23 07:14:01;;;;;;;0.30;0.30;;;-0.20;99.90;;;;;;5175231;27;20117;-74
2022/11/23 07:16:26;;;;;;;0.40;0.40;;;0.00;99.90;;;;;;5175870;27;20492;-74
2022/11/23 07:18:52;;;;;;;0.80;0.80;;;-0.10;99.90;;;;;;5175757;27;20041;-74
2022/11/23 07:21:18;;;;;;;0.40;0.40;;;-0.10;99.90;;;;;;5175937;27;20125;-75
2022/11/23 07:23:43;;;;;;;0.40;0.40;;;-0.20;99.90;;;;;;5175918;27;20035;-75
2022/11/23 07:26:09;;;;;;;0.50;0.50;;;-0.20;99.90;;;;;;5175804;27;20381;-74
2022/11/23 07:28:34;;;;;;;0.53;0.53;;;-0.30;99.90;;;;;;5175271;27;20365;-73
2022/11/23 07:31:00;;;;;;;0.40;0.40;;;-0.30;99.90;;;;;;5175712;27;20137;-74
2022/11/23 07:33:26;;;;;;;0.40;0.40;;;-0.40;99.90;;;;;;5175920;27;20022;-73
2022/11/23 07:35:51;;;;;;;2.60;2.40;;;-0.30;99.90;;;;;;5175967;27;20038;-74
2022/11/23 07:38:17;;;;;;;0.50;0.50;;;-0.20;99.90;;;;;;5170861;27;20027;-68
2022/11/23 07:40:42;;;;;;;0.40;0.40;;;-0.10;99.90;;;;;;5172047;27;20334;-69
2022/11/23 07:43:09;;;;;;;1.30;1.23;;;0.00;99.90;;;;;;5172173;27;20114;-70
2022/11/23 07:45:36;;;;;;;1.35;1.25;;;0.20;99.90;;;;;;5166194;27;20486;-70
2022/11/23 07:48:04;;;;;;;0.40;0.40;;;0.20;99.90;;;;;;5169191;27;20576;-68
2022/11/23 07:50:30;;;;;;;0.55;0.55;;;0.30;99.90;;;;;;5168207;27;20374;-69
2022/11/23 07:52:55;;;;;;;0.45;0.45;;;0.30;99.90;;;;;;5158948;27;20047;-67
2022/11/23 07:55:22;;;;;;;0.83;0.83;;;0.30;99.90;;;;;;5144892;27;20045;-69
2022/11/23 07:57:52;;;;;;;0.47;0.47;;;0.30;99.90;;;;;;5172870;27;20027;-68
2022/11/23 08:00:19;;;;;;;0.47;0.47;;;0.20;99.90;;;;;;5154802;27;20031;-68
2022/11/23 08:02:44;;;;;;;;;;;0.20;99.90;;;;;;5168496;27;20037;-69
2022/11/23 08:05:10;;;;;;;0.47;0.47;;;-0.10;99.90;;;;;;5166528;27;20307;-68
2022/11/23 08:07:36;;;;;;;1.80;1.70;;;0.10;99.90;;;;;;5170845;27;20067;-69
2022/11/23 08:10:01;;;;;;;0.63;0.63;;;0.10;99.90;;;;;;5164058;27;20375;-69
2022/11/23 08:12:27;;;;;;;0.57;0.57;;;0.20;99.90;;;;;;5156136;27;20061;-69
2022/11/23 08:14:52;;;;;;;0.60;0.60;;;0.30;99.90;;;;;;5155285;27;20438;-69
2022/11/23 08:17:18;;;;;;;1.87;1.77;;;0.20;99.90;;;;;;5156025;27;20064;-68
2022/11/23 08:19:44;;;;;;;0.40;0.40;;;0.20;99.90;;;;;;5174621;27;20042;-68
2022/11/23 08:22:09;;;;;;;1.63;1.53;;;0.10;99.90;;;;;;5174966;27;20125;-68
2022/11/23 08:24:35;;;;;;;0.37;0.37;;;0.10;99.90;;;;;;5169983;27;20038;-68
2022/11/23 08:27:00;;;;;;;0.50;0.50;;;0.10;99.90;;;;;;5165121;27;20113;-70
2022/11/23 08:29:26;;;;;;;0.40;0.40;;;0.10;99.90;;;;;;5137595;27;20046;-72
2022/11/23 08:31:52;;;;;;;0.40;0.40;;;0.20;99.90;;;;;;5173694;27;20117;-68
2022/11/23 08:34:18;;;;;;;0.40;0.40;;;0.20;99.90;;;;;;5174015;27;20063;-68
2022/11/23 08:36:44;;;;;;;0.30;0.30;;;0.30;99.90;;;;;;5173778;27;20042;-66
2022/11/23 08:39:10;;;;;;;0.55;0.55;;;0.20;99.90;;;;;;5155149;27;20038;-69
2022/11/23 08:41:37;;;;;;;2.80;1.70;;;0.50;99.90;;;;;;5173632;27;20106;-68
2022/11/23 08:44:03;;;;;;;0.80;0.80;;;0.50;99.90;;;;;;5181747;27;20022;-67
2022/11/23 08:46:29;;;;;;;1.38;1.30;;;0.30;99.90;;;;;;5165769;27;20026;-65
2022/11/23 08:48:54;;;;;;;0.93;0.93;;;0.50;99.90;;;;;;5168325;27;20035;-67
2022/11/23 08:51:21;;;;;;;0.40;0.40;;;0.50;99.90;;;;;;5144985;27;20133;-66
2022/11/23 08:53:49;;;;;;;0.93;0.93;;;0.60;99.90;;;;;;5167673;27;20122;-66
2022/11/23 08:56:15;;;;;;;0.50;0.50;;;0.60;99.90;;;;;;5168139;27;20114;-68
2022/11/23 08:58:41;;;;;;;2.10;2.00;;;0.60;99.90;;;;;;5173145;27;20064;-69
2022/11/23 09:01:14;;;;;;;0.93;0.90;;;0.60;99.90;;;;;;5170278;27;20038;-68
2022/11/23 09:03:40;;;;;;;1.83;1.73;;;0.60;99.90;;;;;;5158935;27;20026;-67
2022/11/23 09:06:06;;;;;;;1.10;1.10;;;0.50;99.90;;;;;;5164289;27;20066;-67
2022/11/23 09:08:32;;;;;;;0.40;0.40;;;0.50;99.90;;;;;;5161831;27;20079;-67
2022/11/23 09:11:02;;;;;;;1.77;1.67;;;0.40;99.90;;;;;;5171462;27;20049;-69
2022/11/23 09:13:28;;;;;;;0.60;0.60;;;0.40;99.90;;;;;;5154474;27;20038;-64
2022/11/23 09:15:58;;;;;;;1.60;1.50;;;0.40;99.90;;;;;;5154467;27;20030;-66
2022/11/23 09:18:24;;;;;;;1.20;1.20;;;0.40;99.90;;;;;;5154053;27;20030;-67
2022/11/23 09:20:50;;;;;;;0.70;0.70;;;0.30;99.90;;;;;;5173566;27;20087;-66
2022/11/23 09:23:15;;;;;;;0.40;0.40;;;0.40;99.90;;;;;;5172935;27;20122;-67
2022/11/23 09:25:42;;;;;;;0.60;0.60;;;0.30;99.90;;;;;;5171719;27;20122;-69
2022/11/23 09:28:07;;;;;;;0.40;0.40;;;0.20;99.90;;;;;;5172327;27;20034;-71
2022/11/23 09:30:33;;;;;;;0.60;0.60;;;0.20;99.90;;;;;;5153696;27;20035;-71
2022/11/23 09:32:59;;;;;;;0.40;0.40;;;0.20;99.90;;;;;;5171483;27;20113;-72
2022/11/23 09:35:25;;;;;;;0.40;0.40;;;0.10;99.90;;;;;;5174142;27;20038;-70
2022/11/23 09:37:57;;;;;;;0.40;0.40;;;0.10;99.90;;;;;;5177565;27;20034;-76
2022/11/23 09:40:28;;;;;;;0.40;0.40;;;1.90;99.90;;;;;;5174153;27;20073;-69
2022/11/23 09:43:24;;;;;;;1.23;1.23;;;0.20;99.90;;;;;;5176894;27;20023;-72
2022/11/23 09:45:53;;;;;;;1.27;1.27;;;0.30;99.90;;;;;;5165381;27;20411;-73
2022/11/23 09:48:34;;;;;;;0.30;0.30;;;0.40;99.90;;;;;;5176060;27;20027;-69
2022/11/23 09:51:16;;;;;;;0.40;0.40;;;0.80;99.90;;;;;;5177593;27;20102;-70
2022/11/23 09:54:08;;;;;;;0.70;0.70;;;1.00;99.90;;;;;;5178158;27;20038;-71
2022/11/23 09:56:37;;;;;;;0.82;0.82;;;0.90;99.90;;;;;;5157402;27;20030;-71
2022/11/23 09:59:17;;;;;;;0.75;0.75;;;0.70;99.90;;;;;;5176512;27;20046;-74
2022/11/23 10:01:43;;;;;;;0.57;0.57;;;0.40;99.90;;;;;;5175867;27;20358;-72
2022/11/23 10:04:16;;;;;;;1.27;1.27;;;0.20;99.90;;;;;;5158783;27;20067;-74
2022/11/23 10:06:42;;;;;;;0.95;0.95;;;0.00;99.90;;;;;;5152898;27;20038;-68
2022/11/23 10:09:42;;;;;;;1.23;1.13;;;0.20;99.90;;;;;;5171258;27;20364;-68
2022/11/23 10:12:31;;;;;;;0.40;0.40;;;0.20;99.90;;;;;;5171724;27;20103;-71
2022/11/23 10:15:09;;;;;;;2.00;1.85;;;0.20;99.90;;;;;;5164760;27;20133;-70
2022/11/23 10:18:05;;;;;;;0.30;0.30;;;0.10;99.90;;;;;;5159336;27;20034;-67
2022/11/23 10:20:55;;;;;;;0.30;0.30;;;0.00;99.90;;;;;;5172781;27;20584;-71
2022/11/23 10:24:08;;;;;;;0.40;0.40;;;0.00;99.90;;;;;;5165828;27;20072;-69
2022/11/23 10:26:38;;;;;;;1.65;1.55;;;0.00;99.90;;;;;;5068509;28;20127;-70
2022/11/23 10:29:13;;;;;;;1.02;1.02;;;0.00;99.90;;;;;;5061164;28;20035;-65
2022/11/23 10:31:44;;;;;;;0.60;0.60;;;0.10;99.90;;;;;;5126566;27;20042;-67
2022/11/23 10:34:12;;;;;;;0.80;0.80;;;0.10;99.90;;;;;;5173387;27;20102;-69
2022/11/23 10:36:38;;;;;;;0.57;0.57;;;0.10;99.90;;;;;;5167131;27;20765;-67
2022/11/23 10:39:26;;;;;;;0.80;0.80;;;0.00;99.90;;;;;;5170203;27;20455;-68
2022/11/23 10:41:58;;;;;;;0.50;0.50;;;0.00;99.90;;;;;;5162267;27;20034;-69
2022/11/23 10:44:35;;;;;;;0.95;0.95;;;0.10;99.90;;;;;;5168025;27;20022;-69
2022/11/23 10:47:01;;;;;;;0.43;0.43;;;0.10;99.90;;;;;;5170026;27;20031;-69
2022/11/23 10:49:29;;;;;;;0.40;0.40;;;0.20;99.90;;;;;;5168861;27;20039;-68
2022/11/23 10:51:55;;;;;;;0.57;0.57;;;-0.10;99.90;;;;;;5172319;27;20277;-70
2022/11/23 10:54:23;;;;;;;0.40;0.40;;;0.30;99.90;;;;;;5166579;27;20303;-69
2022/11/23 10:56:50;;;;;;;0.50;0.50;;;0.30;99.90;;;;;;5171749;27;20072;-70
2022/11/23 10:59:27;;;;;;;0.50;0.50;;;0.30;99.90;;;;;;5169598;27;20038;-71
2022/11/23 11:02:09;;;;;;;0.83;0.83;;;0.40;99.90;;;;;;5151343;27;20085;-69
2022/11/23 11:04:35;;;;;;;0.50;0.50;;;0.20;99.90;;;;;;5166442;27;20299;-68
2022/11/23 11:07:30;;;;;;;3.23;3.03;;;0.40;99.90;;;;;;5172936;27;20102;-68
2022/11/23 11:09:58;;;;;;;1.40;1.35;;;0.50;99.90;;;;;;5152976;27;20038;-70
2022/11/23 11:12:25;;;;;;;0.75;0.75;;;0.40;99.90;;;;;;5168110;27;20064;-71
2022/11/23 11:14:55;;;;;;;0.50;0.50;;;0.30;99.90;;;;;;5173535;27;20034;-69
2022/11/23 11:17:26;;;;;;;0.85;0.85;;;0.40;99.90;;;;;;5156221;27;20042;-70
2022/11/23 11:19:52;;;;;;;0.82;0.82;;;0.40;99.90;;;;;;5170413;27;20117;-71
2022/11/23 11:22:34;;;;;;;1.43;1.37;;;0.10;99.90;;;;;;5161879;27;20195;-70
2022/11/23 11:25:02;;;;;;;0.85;0.85;;;0.40;99.90;;;;;;5153905;27;20030;-70
2022/11/23 11:27:30;;;;;;;1.25;1.25;;;0.40;99.90;;;;;;5146294;27;20018;-70
2022/11/23 11:30:02;;;;;;;0.55;0.55;;;0.40;99.90;;;;;;5171925;27;20569;-71
2022/11/23 11:32:52;;;;;;;0.40;0.40;;;0.40;99.90;;;;;;5173146;27;20030;-70
2022/11/23 11:35:35;;;;;;;5.85;3.63;;;0.40;99.90;;;;;;5166077;27;20038;-71
2022/11/23 11:38:15;;;;;;;0.82;0.82;;;0.10;99.90;;;;;;5164727;27;20389;-69
2022/11/23 11:40:47;;;;;;;0.68;0.68;;;0.30;99.90;;;;;;5146745;27;20038;-68
2022/11/23 11:43:33;;;;;;;0.50;0.50;;;0.20;99.90;;;;;;5166749;27;20027;-68
2022/11/23 11:46:11;;;;;;;0.70;0.70;;;0.20;99.90;;;;;;5155876;27;20469;-69
2022/11/23 11:48:45;;;;;;;0.40;0.40;;;0.20;99.90;;;;;;5155902;27;20037;-69
2022/11/23 11:51:22;;;;;;;1.17;1.17;;;0.30;99.90;;;;;;5173478;27;20446;-69
2022/11/23 11:53:58;;;;;;;;;;;0.20;99.90;;;;;;5168321;27;20058;-69
2022/11/23 11:56:41;;;;;;;3.30;2.95;;;0.10;99.90;;;;;;5165006;27;19917;-69
2022/11/23 11:59:29;;;;;;;0.30;0.30;;;0.20;99.90;;;;;;5166317;27;20533;-71
2022/11/23 12:02:15;;;;;;;2.10;2.00;;;0.20;99.90;;;;;;5167618;27;20373;-71
2022/11/23 12:05:00;;;;;;;1.20;1.20;;;0.10;99.90;;;;;;5165771;27;20022;-71
2022/11/23 12:07:32;;;;;;;0.80;0.80;;;0.20;99.90;;;;;;5172389;27;20408;-71
2022/11/23 12:10:09;;;;;;;0.90;0.90;;;0.20;99.90;;;;;;5169137;27;20426;-67
2022/11/23 12:12:35;;;;;;;1.08;1.08;;;0.50;99.90;;;;;;5166763;27;20446;-70
2022/11/23 12:15:02;;;;;;;0.60;0.60;;;0.70;99.90;;;;;;5160394;27;20482;-71
2022/11/23 12:17:40;;;;;;;2.97;2.78;;;0.90;99.90;;;;;;5162215;27;20031;-69
2022/11/23 12:20:08;;;;;;;1.25;1.15;;;0.90;99.90;;;;;;5148564;27;20037;-71
2022/11/23 12:23:08;;;;;;;1.63;1.52;;;0.70;99.90;;;;;;5166893;27;20528;-70
2022/11/23 12:25:39;;;;;;;0.80;0.80;;;0.60;99.90;;;;;;5160369;27;20486;-68
2022/11/23 12:28:26;;;;;;;1.00;1.00;;;0.50;99.90;;;;;;5165410;27;20034;-68
2022/11/23 12:31:13;;;;;;;1.15;1.15;;;0.50;99.90;;;;;;5166145;27;20117;-70
2022/11/23 12:33:53;;;;;;;0.57;0.57;;;0.40;99.90;;;;;;5167554;27;20061;-68
2022/11/23 12:36:28;;;;;;;1.70;1.65;;;0.30;99.90;;;;;;5166291;27;20047;-70
2022/11/23 12:39:12;;;;;;;1.08;1.08;;;0.40;99.90;;;;;;5163401;27;20049;-70
2022/11/23 12:42:33;;;;;;;0.40;0.40;;;0.30;99.90;;;;;;5172062;27;20055;-68
2022/11/23 12:45:13;;;;;;;2.13;2.00;;;0.50;99.90;;;;;;5157024;27;20138;-68
2022/11/23 12:48:01;;;;;;;1.33;1.27;;;0.80;99.90;;;;;;5167149;27;20037;-69
2022/11/23 12:50:44;;;;;;;1.55;1.45;;;0.90;99.90;;;;;;5156535;27;20099;-67
2022/11/23 12:53:25;;;;;;;1.27;1.27;;;0.80;99.90;;;;;;5167097;27;20122;-68
2022/11/23 12:56:09;;;;;;;0.52;0.52;;;0.70;99.90;;;;;;5167331;27;20095;-67
2022/11/23 12:58:37;;;;;;;0.40;0.40;;;0.60;99.90;;;;;;5163659;27;20039;-69
2022/11/23 13:01:10;;;;;;;3.08;2.80;;;0.50;99.90;;;;;;5170897;27;20022;-69
2022/11/23 13:04:10;;;;;;;3.00;1.92;;;0.50;99.90;;;;;;5160777;27;20027;-67